sensor_id;sensor_type;location;lat;lon;timestamp;pressure;altitude;pressure_sealevel;temperature;humidity
75521;BME280;64102;48.628;9.002;2023-01-04T00:01:49;97272.53;;;1.61;96.83
75521;BME280;64102;48.628;9.002;2023-01-04T00:04:14;97274.25;;;1.61;96.59
75521;BME280;64102;48.628;9.002;2023-01-04T00:06:40;97274.25;;;1.61;96.80
75521;BME280;64102;48.628;9.002;2023-01-04T00:09:05;97268.25;;;1.63;96.34
75521;BME280;64102;48.628;9.002;2023-01-04T00:11:30;97266.69;;;1.59;96.89
75521;BME280;64102;48.628;9.002;2023-01-04T00:13:57;97261.03;;;1.74;96.59
75521;BME280;64102;48.628;9.002;2023-01-04T00:16:25;97263.31;;;1.82;96.36
75521;BME280;64102;48.628;9.002;2023-01-04T00:18:52;97250.81;;;1.76;96.21
75521;BME280;64102;48.628;9.002;2023-01-04T00:21:24;97252.31;;;1.82;95.82
75521;BME280;64102;48.628;9.002;2023-01-04T00:23:51;97246.38;;;1.81;96.21
75521;BME280;64102;48.628;9.002;2023-01-04T00:26:30;97244.81;;;1.78;95.97
75521;BME280;64102;48.628;9.002;2023-01-04T00:29:02;97237.16;;;1.78;96.30
75521;BME280;64102;48.628;9.002;2023-01-04T00:31:28;97229.53;;;1.78;95.80
75521;BME280;64102;48.628;9.002;2023-01-04T00:33:59;97217.56;;;1.80;96.06
75521;BME280;64102;48.628;9.002;2023-01-04T00:36:25;97220.00;;;1.84;95.96
75521;BME280;64102;48.628;9.002;2023-01-04T00:38:51;97221.53;;;1.88;96.00
75521;BME280;64102;48.628;9.002;2023-01-04T00:41:51;97209.72;;;1.87;95.90
75521;BME280;64102;48.628;9.002;2023-01-04T00:44:17;97209.06;;;1.82;96.09
75521;BME280;64102;48.628;9.002;2023-01-04T00:46:46;97211.78;;;1.77;96.51
75521;BME280;64102;48.628;9.002;2023-01-04T00:49:11;97210.50;;;1.65;96.45
75521;BME280;64102;48.628;9.002;2023-01-04T00:51:38;97210.63;;;1.62;96.64
75521;BME280;64102;48.628;9.002;2023-01-04T00:54:06;97197.78;;;1.65;96.92
75521;BME280;64102;48.628;9.002;2023-01-04T00:56:33;97203.88;;;1.61;96.96
75521;BME280;64102;48.628;9.002;2023-01-04T00:59:00;97201.31;;;1.61;96.87
75521;BME280;64102;48.628;9.002;2023-01-04T01:01:27;97193.59;;;1.64;97.04
75521;BME280;64102;48.628;9.002;2023-01-04T01:03:54;97194.47;;;1.63;97.21
75521;BME280;64102;48.628;9.002;2023-01-04T01:06:20;97184.34;;;1.62;96.91
75521;BME280;64102;48.628;9.002;2023-01-04T01:08:46;97184.44;;;1.60;97.25
75521;BME280;64102;48.628;9.002;2023-01-04T01:11:11;97181.81;;;1.62;97.32
75521;BME280;64102;48.628;9.002;2023-01-04T01:13:37;97190.25;;;1.62;97.22
75521;BME280;64102;48.628;9.002;2023-01-04T01:16:09;97182.59;;;1.64;97.45
75521;BME280;64102;48.628;9.002;2023-01-04T01:18:36;97185.88;;;1.66;97.10
75521;BME280;64102;48.628;9.002;2023-01-04T01:21:11;97192.97;;;1.58;97.04
75521;BME280;64102;48.628;9.002;2023-01-04T01:23:36;97199.13;;;1.52;97.06
75521;BME280;64102;48.628;9.002;2023-01-04T01:26:04;97205.00;;;1.54;97.34
75521;BME280;64102;48.628;9.002;2023-01-04T01:28:30;97205.94;;;1.52;97.27
75521;BME280;64102;48.628;9.002;2023-01-04T01:30:57;97206.75;;;1.52;97.35
75521;BME280;64102;48.628;9.002;2023-01-04T01:33:25;97204.19;;;1.52;97.40
75521;BME280;64102;48.628;9.002;2023-01-04T01:35:51;97207.66;;;1.51;97.19
75521;BME280;64102;48.628;9.002;2023-01-04T01:38:16;97207.53;;;1.54;97.47
75521;BME280;64102;48.628;9.002;2023-01-04T01:40:42;97206.88;;;1.49;97.25
75521;BME280;64102;48.628;9.002;2023-01-04T01:43:19;97205.28;;;1.47;97.51
75521;BME280;64102;48.628;9.002;2023-01-04T01:45:48;97212.94;;;1.45;97.29
75521;BME280;64102;48.628;9.002;2023-01-04T01:48:18;97211.25;;;1.46;97.27
75521;BME280;64102;48.628;9.002;2023-01-04T01:50:49;97210.38;;;1.47;97.08
75521;BME280;64102;48.628;9.002;2023-01-04T01:53:18;97197.81;;;1.42;96.79
75521;BME280;64102;48.628;9.002;2023-01-04T01:55:45;97203.31;;;1.53;97.14
75521;BME280;64102;48.628;9.002;2023-01-04T01:58:15;97210.19;;;1.51;97.04
75521;BME280;64102;48.628;9.002;2023-01-04T02:00:42;97206.09;;;1.47;96.84
75521;BME280;64102;48.628;9.002;2023-01-04T02:03:20;97214.78;;;1.42;96.97
75521;BME280;64102;48.628;9.002;2023-01-04T02:05:50;97210.56;;;1.41;96.90
75521;BME280;64102;48.628;9.002;2023-01-04T02:08:17;97211.75;;;1.32;96.53
75521;BME280;64102;48.628;9.002;2023-01-04T02:10:44;97213.16;;;1.39;96.68
75521;BME280;64102;48.628;9.002;2023-01-04T02:13:15;97210.69;;;1.38;96.84
75521;BME280;64102;48.628;9.002;2023-01-04T02:16:11;97211.94;;;1.26;96.96
75521;BME280;64102;48.628;9.002;2023-01-04T02:18:57;97205.59;;;1.14;96.68
75521;BME280;64102;48.628;9.002;2023-01-04T02:24:25;97197.34;;;1.08;97.32
75521;BME280;64102;48.628;9.002;2023-01-04T02:35:19;97194.75;;;1.09;97.78
75521;BME280;64102;48.628;9.002;2023-01-04T02:38:04;97176.13;;;1.09;97.63
75521;BME280;64102;48.628;9.002;2023-01-04T02:40:47;97173.94;;;1.23;97.32
75521;BME280;64102;48.628;9.002;2023-01-04T02:43:26;97165.34;;;1.25;97.23
75521;BME280;64102;48.628;9.002;2023-01-04T02:46:16;97171.59;;;1.40;97.07
75521;BME280;64102;48.628;9.002;2023-01-04T02:48:44;97157.00;;;1.45;96.65
75521;BME280;64102;48.628;9.002;2023-01-04T02:51:31;97155.97;;;1.51;96.71
75521;BME280;64102;48.628;9.002;2023-01-04T02:53:59;97152.41;;;1.55;95.90
75521;BME280;64102;48.628;9.002;2023-01-04T03:05:14;97148.28;;;1.74;94.79
75521;BME280;64102;48.628;9.002;2023-01-04T03:08:25;97145.75;;;1.74;94.54
75521;BME280;64102;48.628;9.002;2023-01-04T03:11:13;97136.38;;;1.74;93.99
75521;BME280;64102;48.628;9.002;2023-01-04T03:14:01;97126.44;;;1.68;94.16
75521;BME280;64102;48.628;9.002;2023-01-04T03:16:29;97126.44;;;1.68;94.46
75521;BME280;64102;48.628;9.002;2023-01-04T03:18:56;97123.81;;;1.70;94.33
75521;BME280;64102;48.628;9.002;2023-01-04T03:21:28;97115.97;;;1.76;94.00
75521;BME280;64102;48.628;9.002;2023-01-04T03:23:58;97109.94;;;1.78;93.50
75521;BME280;64102;48.628;9.002;2023-01-04T03:26:49;97111.47;;;1.83;93.90
75521;BME280;64102;48.628;9.002;2023-01-04T03:29:57;97121.75;;;1.79;93.83
75521;BME280;64102;48.628;9.002;2023-01-04T03:32:49;97119.13;;;1.83;93.54
75521;BME280;64102;48.628;9.002;2023-01-04T03:35:43;97116.91;;;1.95;93.53
75521;BME280;64102;48.628;9.002;2023-01-04T03:38:15;97119.13;;;2.03;93.31
75521;BME280;64102;48.628;9.002;2023-01-04T03:41:03;97114.94;;;2.02;93.24
75521;BME280;64102;48.628;9.002;2023-01-04T03:44:05;97122.56;;;2.02;92.82
75521;BME280;64102;48.628;9.002;2023-01-04T03:47:00;97123.47;;;2.01;93.14
75521;BME280;64102;48.628;9.002;2023-01-04T03:49:54;97119.28;;;2.00;93.19
75521;BME280;64102;48.628;9.002;2023-01-04T03:52:24;97133.09;;;1.93;93.39
75521;BME280;64102;48.628;9.002;2023-01-04T03:54:51;97127.19;;;1.92;93.52
75521;BME280;64102;48.628;9.002;2023-01-04T03:57:18;97113.59;;;1.93;93.19
75521;BME280;64102;48.628;9.002;2023-01-04T03:59:50;97102.47;;;1.96;93.31
75521;BME280;64102;48.628;9.002;2023-01-04T04:02:22;97106.41;;;2.03;92.83
75521;BME280;64102;48.628;9.002;2023-01-04T04:04:48;97104.47;;;2.09;93.10
75521;BME280;64102;48.628;9.002;2023-01-04T04:07:31;97090.56;;;2.16;92.88
75521;BME280;64102;48.628;9.002;2023-01-04T04:10:15;97076.59;;;2.27;92.10
75521;BME280;64102;48.628;9.002;2023-01-04T04:12:41;97072.75;;;2.37;91.63
75521;BME280;64102;48.628;9.002;2023-01-04T04:15:06;97084.47;;;2.41;91.95
75521;BME280;64102;48.628;9.002;2023-01-04T04:17:32;97085.09;;;2.46;91.63
75521;BME280;64102;48.628;9.002;2023-01-04T04:19:57;97082.53;;;2.46;91.75
75521;BME280;64102;48.628;9.002;2023-01-04T04:22:23;97079.75;;;2.52;91.41
75521;BME280;64102;48.628;9.002;2023-01-04T04:24:48;97078.81;;;2.54;91.37
75521;BME280;64102;48.628;9.002;2023-01-04T04:27:13;97076.88;;;2.59;91.23
75521;BME280;64102;48.628;9.002;2023-01-04T04:29:39;97078.38;;;2.63;91.49
75521;BME280;64102;48.628;9.002;2023-01-04T04:32:04;97084.94;;;2.69;90.88
75521;BME280;64102;48.628;9.002;2023-01-04T04:34:29;97081.06;;;2.81;90.27
75521;BME280;64102;48.628;9.002;2023-01-04T04:36:55;97075.03;;;2.82;90.97
75521;BME280;64102;48.628;9.002;2023-01-04T04:39:20;97076.03;;;2.98;90.00
75521;BME280;64102;48.628;9.002;2023-01-04T04:41:45;97081.00;;;3.01;90.54
75521;BME280;64102;48.628;9.002;2023-01-04T04:44:16;97084.16;;;3.06;90.04
75521;BME280;64102;48.628;9.002;2023-01-04T04:46:42;97079.53;;;3.14;89.26
75521;BME280;64102;48.628;9.002;2023-01-04T04:49:08;97072.66;;;3.16;89.50
75521;BME280;64102;48.628;9.002;2023-01-04T04:51:34;97074.44;;;3.14;89.44
75521;BME280;64102;48.628;9.002;2023-01-04T04:53:59;97069.34;;;3.14;89.90
75521;BME280;64102;48.628;9.002;2023-01-04T04:56:25;97072.72;;;3.14;89.90
75521;BME280;64102;48.628;9.002;2023-01-04T04:58:51;97073.41;;;3.18;89.06
75521;BME280;64102;48.628;9.002;2023-01-04T05:01:16;97064.19;;;3.15;89.60
75521;BME280;64102;48.628;9.002;2023-01-04T05:03:41;97065.03;;;3.16;89.57
75521;BME280;64102;48.628;9.002;2023-01-04T05:06:07;97067.22;;;3.05;90.62
75521;BME280;64102;48.628;9.002;2023-01-04T05:08:32;97071.28;;;3.09;90.30
75521;BME280;64102;48.628;9.002;2023-01-04T05:10:58;97064.88;;;3.19;89.80
75521;BME280;64102;48.628;9.002;2023-01-04T05:13:23;97066.78;;;3.33;88.91
75521;BME280;64102;48.628;9.002;2023-01-04T05:15:50;97058.34;;;3.49;88.86
75521;BME280;64102;48.628;9.002;2023-01-04T05:18:19;97066.34;;;3.60;88.42
75521;BME280;64102;48.628;9.002;2023-01-04T05:20:44;97068.00;;;3.62;88.25
75521;BME280;64102;48.628;9.002;2023-01-04T05:23:12;97067.84;;;3.65;88.38
75521;BME280;64102;48.628;9.002;2023-01-04T05:25:38;97064.41;;;3.66;88.85
75521;BME280;64102;48.628;9.002;2023-01-04T05:28:04;97066.34;;;3.60;88.03
75521;BME280;64102;48.628;9.002;2023-01-04T05:30:30;97065.44;;;3.62;88.75
75521;BME280;64102;48.628;9.002;2023-01-04T05:33:14;97058.59;;;3.62;88.70
75521;BME280;64102;48.628;9.002;2023-01-04T05:35:39;97058.69;;;3.60;88.07
75521;BME280;64102;48.628;9.002;2023-01-04T05:38:04;97062.97;;;3.60;88.87
75521;BME280;64102;48.628;9.002;2023-01-04T05:40:30;97071.56;;;3.57;88.74
75521;BME280;64102;48.628;9.002;2023-01-04T05:42:55;97062.34;;;3.55;89.35
75521;BME280;64102;48.628;9.002;2023-01-04T05:45:21;97065.66;;;3.57;89.03
75521;BME280;64102;48.628;9.002;2023-01-04T05:47:51;97065.72;;;3.55;89.35
75521;BME280;64102;48.628;9.002;2023-01-04T05:50:18;97068.34;;;3.54;89.07
75521;BME280;64102;48.628;9.002;2023-01-04T05:52:43;97058.22;;;3.52;89.12
75521;BME280;64102;48.628;9.002;2023-01-04T05:55:09;97049.66;;;3.53;89.35
75521;BME280;64102;48.628;9.002;2023-01-04T05:57:35;97040.22;;;3.55;89.15
75521;BME280;64102;48.628;9.002;2023-01-04T06:00:00;97046.88;;;3.58;88.76
75521;BME280;64102;48.628;9.002;2023-01-04T06:02:28;97047.59;;;3.62;88.59
75521;BME280;64102;48.628;9.002;2023-01-04T06:04:53;97041.44;;;3.66;88.59
75521;BME280;64102;48.628;9.002;2023-01-04T06:07:19;97028.25;;;3.75;87.61
75521;BME280;64102;48.628;9.002;2023-01-04T06:09:44;97037.31;;;3.80;87.73
75521;BME280;64102;48.628;9.002;2023-01-04T06:12:10;97034.41;;;3.88;87.14
75521;BME280;64102;48.628;9.002;2023-01-04T06:14:36;97027.63;;;3.87;87.10
75521;BME280;64102;48.628;9.002;2023-01-04T06:17:02;97028.84;;;3.97;86.41
75521;BME280;64102;48.628;9.002;2023-01-04T06:19:27;97025.25;;;4.01;86.37
75521;BME280;64102;48.628;9.002;2023-01-04T06:21:53;97014.94;;;4.02;86.07
75521;BME280;64102;48.628;9.002;2023-01-04T06:24:18;97021.53;;;4.06;85.42
75521;BME280;64102;48.628;9.002;2023-01-04T06:26:44;97026.28;;;4.14;85.76
75521;BME280;64102;48.628;9.002;2023-01-04T06:29:10;97016.19;;;4.11;86.18
75521;BME280;64102;48.628;9.002;2023-01-04T06:31:35;97020.34;;;4.14;85.73
75521;BME280;64102;48.628;9.002;2023-01-04T06:34:01;97026.19;;;4.16;85.03
75521;BME280;64102;48.628;9.002;2023-01-04T06:36:27;97022.06;;;4.13;85.83
75521;BME280;64102;48.628;9.002;2023-01-04T06:38:53;97007.81;;;4.09;85.62
75521;BME280;64102;48.628;9.002;2023-01-04T06:41:20;97031.84;;;4.05;85.70
75521;BME280;64102;48.628;9.002;2023-01-04T06:43:46;97030.19;;;4.04;85.59
75521;BME280;64102;48.628;9.002;2023-01-04T06:46:11;97023.75;;;3.97;86.12
75521;BME280;64102;48.628;9.002;2023-01-04T06:48:36;97021.09;;;3.98;86.64
75521;BME280;64102;48.628;9.002;2023-01-04T06:51:02;97024.63;;;3.96;86.23
75521;BME280;64102;48.628;9.002;2023-01-04T06:53:27;97022.16;;;3.94;86.61
75521;BME280;64102;48.628;9.002;2023-01-04T06:55:52;97022.31;;;3.91;87.08
75521;BME280;64102;48.628;9.002;2023-01-04T06:58:18;97023.88;;;3.94;86.15
75521;BME280;64102;48.628;9.002;2023-01-04T07:00:43;97024.69;;;3.94;86.38
75521;BME280;64102;48.628;9.002;2023-01-04T07:03:10;97029.81;;;3.94;86.72
75521;BME280;64102;48.628;9.002;2023-01-04T07:05:35;97033.13;;;3.96;86.07
75521;BME280;64102;48.628;9.002;2023-01-04T07:08:01;97030.34;;;4.01;85.39
75521;BME280;64102;48.628;9.002;2023-01-04T07:10:27;97042.88;;;4.05;84.96
75521;BME280;64102;48.628;9.002;2023-01-04T07:12:53;97040.13;;;4.10;84.08
75521;BME280;64102;48.628;9.002;2023-01-04T07:15:18;97035.66;;;4.14;84.97
75521;BME280;64102;48.628;9.002;2023-01-04T07:17:48;97042.34;;;4.16;83.33
75521;BME280;64102;48.628;9.002;2023-01-04T07:20:14;97037.41;;;4.13;83.72
75521;BME280;64102;48.628;9.002;2023-01-04T07:22:39;97043.41;;;4.12;84.03
75521;BME280;64102;48.628;9.002;2023-01-04T07:25:05;97030.47;;;4.15;83.16
75521;BME280;64102;48.628;9.002;2023-01-04T07:27:30;97021.19;;;4.14;82.71
75521;BME280;64102;48.628;9.002;2023-01-04T07:29:56;97022.81;;;4.15;83.01
75521;BME280;64102;48.628;9.002;2023-01-04T07:32:21;97025.28;;;4.17;82.65
75521;BME280;64102;48.628;9.002;2023-01-04T07:34:46;97021.69;;;4.21;81.82
75521;BME280;64102;48.628;9.002;2023-01-04T07:37:12;97012.72;;;4.29;81.53
75521;BME280;64102;48.628;9.002;2023-01-04T07:39:39;97021.75;;;4.36;81.31
75521;BME280;64102;48.628;9.002;2023-01-04T07:42:04;97024.31;;;4.36;80.85
75521;BME280;64102;48.628;9.002;2023-01-04T07:44:29;97002.22;;;4.35;82.07
75521;BME280;64102;48.628;9.002;2023-01-04T07:46:55;97011.09;;;4.28;83.49
75521;BME280;64102;48.628;9.002;2023-01-04T07:49:21;97005.88;;;4.30;83.10
75521;BME280;64102;48.628;9.002;2023-01-04T07:51:47;97004.94;;;4.32;82.61
75521;BME280;64102;48.628;9.002;2023-01-04T07:54:14;96988.91;;;4.29;83.06
75521;BME280;64102;48.628;9.002;2023-01-04T07:56:39;96989.72;;;4.29;83.40
75521;BME280;64102;48.628;9.002;2023-01-04T07:59:07;96994.09;;;4.27;83.36
75521;BME280;64102;48.628;9.002;2023-01-04T08:01:33;96991.78;;;4.23;83.98
75521;BME280;64102;48.628;9.002;2023-01-04T08:04:03;96987.66;;;4.20;84.44
75521;BME280;64102;48.628;9.002;2023-01-04T08:06:30;96985.69;;;4.25;84.21
75521;BME280;64102;48.628;9.002;2023-01-04T08:08:57;96979.75;;;4.25;84.38
75521;BME280;64102;48.628;9.002;2023-01-04T08:11:22;96989.22;;;4.23;84.97
75521;BME280;64102;48.628;9.002;2023-01-04T08:13:49;96987.34;;;4.26;84.03
75521;BME280;64102;48.628;9.002;2023-01-04T08:16:22;96986.59;;;4.24;84.99
75521;BME280;64102;48.628;9.002;2023-01-04T08:18:53;96973.75;;;4.26;84.38
75521;BME280;64102;48.628;9.002;2023-01-04T08:21:18;96978.69;;;4.29;84.49
75521;BME280;64102;48.628;9.002;2023-01-04T08:23:44;96966.84;;;4.28;84.00
75521;BME280;64102;48.628;9.002;2023-01-04T08:26:12;96971.47;;;4.37;83.71
75521;BME280;64102;48.628;9.002;2023-01-04T08:28:38;96970.41;;;4.41;83.19
75521;BME280;64102;48.628;9.002;2023-01-04T08:31:10;96970.84;;;4.49;81.47
75521;BME280;64102;48.628;9.002;2023-01-04T08:33:36;96975.78;;;4.52;81.49
75521;BME280;64102;48.628;9.002;2023-01-04T08:36:29;96972.56;;;4.48;82.29
75521;BME280;64102;48.628;9.002;2023-01-04T08:38:57;96977.66;;;4.48;82.74
75521;BME280;64102;48.628;9.002;2023-01-04T08:41:23;96979.34;;;4.49;82.69
75521;BME280;64102;48.628;9.002;2023-01-04T08:43:49;96978.50;;;4.49;82.81
75521;BME280;64102;48.628;9.002;2023-01-04T08:46:14;96976.59;;;4.53;82.35
75521;BME280;64102;48.628;9.002;2023-01-04T08:48:40;96975.53;;;4.57;82.16
75521;BME280;64102;48.628;9.002;2023-01-04T08:51:09;96953.53;;;4.54;82.72
75521;BME280;64102;48.628;9.002;2023-01-04T08:53:35;96946.84;;;4.51;82.23
75521;BME280;64102;48.628;9.002;2023-01-04T08:56:01;96943.13;;;4.57;82.04
75521;BME280;64102;48.628;9.002;2023-01-04T08:58:28;96954.78;;;4.63;81.80
75521;BME280;64102;48.628;9.002;2023-01-04T09:01:08;96949.50;;;4.66;81.11
75521;BME280;64102;48.628;9.002;2023-01-04T09:03:34;96935.63;;;4.70;81.45
75521;BME280;64102;48.628;9.002;2023-01-04T09:06:08;96956.91;;;4.70;81.07
75521;BME280;64102;48.628;9.002;2023-01-04T09:08:35;96954.19;;;4.73;81.21
75521;BME280;64102;48.628;9.002;2023-01-04T09:11:10;96952.06;;;4.81;80.49
75521;BME280;64102;48.628;9.002;2023-01-04T09:13:36;96956.00;;;4.87;79.56
75521;BME280;64102;48.628;9.002;2023-01-04T09:16:03;96950.59;;;4.93;79.18
75521;BME280;64102;48.628;9.002;2023-01-04T09:18:29;96941.66;;;5.00;78.58
75521;BME280;64102;48.628;9.002;2023-01-04T09:20:55;96940.44;;;5.07;78.18
75521;BME280;64102;48.628;9.002;2023-01-04T09:23:21;96929.44;;;5.05;78.71
75521;BME280;64102;48.628;9.002;2023-01-04T09:25:47;96930.78;;;5.12;77.58
75521;BME280;64102;48.628;9.002;2023-01-04T09:28:13;96929.50;;;5.19;77.59
75521;BME280;64102;48.628;9.002;2023-01-04T09:30:38;96922.47;;;5.23;77.91
75521;BME280;64102;48.628;9.002;2023-01-04T09:33:03;96921.97;;;5.32;76.58
75521;BME280;64102;48.628;9.002;2023-01-04T09:35:28;96931.88;;;5.38;76.25
75521;BME280;64102;48.628;9.002;2023-01-04T09:37:55;96930.88;;;5.40;76.05
75521;BME280;64102;48.628;9.002;2023-01-04T09:40:26;96941.69;;;5.46;76.02
75521;BME280;64102;48.628;9.002;2023-01-04T09:42:54;96944.72;;;5.52;75.96
75521;BME280;64102;48.628;9.002;2023-01-04T09:45:21;96947.03;;;5.57;75.24
75521;BME280;64102;48.628;9.002;2023-01-04T09:48:06;96944.84;;;5.65;75.02
75521;BME280;64102;48.628;9.002;2023-01-04T09:50:45;96947.50;;;5.63;75.55
75521;BME280;64102;48.628;9.002;2023-01-04T09:55:49;96949.63;;;5.71;74.68
75521;BME280;64102;48.628;9.002;2023-01-04T09:58:30;96952.91;;;5.73;74.42
75521;BME280;64102;48.628;9.002;2023-01-04T10:01:04;96945.88;;;5.76;74.73
75521;BME280;64102;48.628;9.002;2023-01-04T10:05:55;96938.88;;;5.80;74.05
75521;BME280;64102;48.628;9.002;2023-01-04T10:08:21;96915.81;;;5.80;74.88
75521;BME280;64102;48.628;9.002;2023-01-04T10:11:13;96937.03;;;5.82;73.91
75521;BME280;64102;48.628;9.002;2023-01-04T10:14:11;96919.94;;;5.82;74.38
75521;BME280;64102;48.628;9.002;2023-01-04T10:19:29;96923.97;;;5.87;74.52
75521;BME280;64102;48.628;9.002;2023-01-04T10:22:19;96930.50;;;5.92;74.17
75521;BME280;64102;48.628;9.002;2023-01-04T10:25:21;96926.75;;;5.98;73.95
75521;BME280;64102;48.628;9.002;2023-01-04T10:28:23;96933.25;;;6.03;73.37
75521;BME280;64102;48.628;9.002;2023-01-04T10:33:47;96925.00;;;6.12;73.93
75521;BME280;64102;48.628;9.002;2023-01-04T10:36:16;96925.69;;;6.16;73.86
75521;BME280;64102;48.628;9.002;2023-01-04T10:38:42;96927.13;;;6.20;73.85
75521;BME280;64102;48.628;9.002;2023-01-04T10:41:10;96930.53;;;6.20;73.99
75521;BME280;64102;48.628;9.002;2023-01-04T10:43:48;96912.94;;;6.28;73.83
75521;BME280;64102;48.628;9.002;2023-01-04T10:46:26;96915.25;;;6.33;73.52
75521;BME280;64102;48.628;9.002;2023-01-04T10:49:06;96902.69;;;6.43;73.78
75521;BME280;64102;48.628;9.002;2023-01-04T10:51:46;96885.38;;;6.46;72.85
75521;BME280;64102;48.628;9.002;2023-01-04T10:54:27;96897.63;;;6.55;73.18
75521;BME280;64102;48.628;9.002;2023-01-04T10:57:11;96897.34;;;6.60;72.07
75521;BME280;64102;48.628;9.002;2023-01-04T10:59:44;96897.97;;;6.63;72.63
75521;BME280;64102;48.628;9.002;2023-01-04T11:02:47;96890.44;;;6.74;72.14
75521;BME280;64102;48.628;9.002;2023-01-04T11:05:21;96888.91;;;6.72;72.04
75521;BME280;64102;48.628;9.002;2023-01-04T11:07:55;96891.25;;;6.75;72.41
75521;BME280;64102;48.628;9.002;2023-01-04T11:10:30;96882.03;;;6.72;71.97
75521;BME280;64102;48.628;9.002;2023-01-04T11:12:58;96897.13;;;6.77;72.58
75521;BME280;64102;48.628;9.002;2023-01-04T11:15:23;96888.53;;;6.78;72.28
75521;BME280;64102;48.628;9.002;2023-01-04T11:17:49;96896.94;;;6.80;71.75
75521;BME280;64102;48.628;9.002;2023-01-04T11:20:15;96876.88;;;6.87;72.09
75521;BME280;64102;48.628;9.002;2023-01-04T11:22:52;96878.50;;;6.88;72.47
75521;BME280;64102;48.628;9.002;2023-01-04T11:25:20;96877.41;;;6.92;71.49
75521;BME280;64102;48.628;9.002;2023-01-04T11:27:50;96877.13;;;6.96;72.43
75521;BME280;64102;48.628;9.002;2023-01-04T11:30:26;96872.78;;;6.97;72.09
75521;BME280;64102;48.628;9.002;2023-01-04T11:33:02;96852.16;;;6.98;71.64
75521;BME280;64102;48.628;9.002;2023-01-04T11:38:09;96846.75;;;7.03;72.74
75521;BME280;64102;48.628;9.002;2023-01-04T11:40:35;96837.59;;;6.99;72.66
75521;BME280;64102;48.628;9.002;2023-01-04T11:45:35;96842.28;;;6.92;72.63
75521;BME280;64102;48.628;9.002;2023-01-04T11:48:00;96848.38;;;7.04;72.84
75521;BME280;64102;48.628;9.002;2023-01-04T11:50:40;96838.66;;;7.09;72.94
75521;BME280;64102;48.628;9.002;2023-01-04T11:55:46;96848.94;;;7.09;73.24
75521;BME280;64102;48.628;9.002;2023-01-04T11:58:14;96856.41;;;7.12;73.25
75521;BME280;64102;48.628;9.002;2023-01-04T12:00:54;96859.50;;;7.17;73.55
75521;BME280;64102;48.628;9.002;2023-01-04T12:03:36;96854.09;;;7.22;73.75
75521;BME280;64102;48.628;9.002;2023-01-04T12:06:20;96848.97;;;7.34;73.50
75521;BME280;64102;48.628;9.002;2023-01-04T12:08:47;96837.19;;;7.44;73.04
75521;BME280;64102;48.628;9.002;2023-01-04T12:11:28;96839.16;;;7.53;73.08
75521;BME280;64102;48.628;9.002;2023-01-04T12:13:57;96840.38;;;7.60;73.33
75521;BME280;64102;48.628;9.002;2023-01-04T12:16:47;96835.75;;;7.65;73.24
75521;BME280;64102;48.628;9.002;2023-01-04T12:19:18;96838.25;;;7.67;73.11
75521;BME280;64102;48.628;9.002;2023-01-04T12:21:47;96833.94;;;7.68;73.15
75521;BME280;64102;48.628;9.002;2023-01-04T12:24:18;96841.31;;;7.72;72.92
75521;BME280;64102;48.628;9.002;2023-01-04T12:26:46;96831.66;;;7.76;73.65
75521;BME280;64102;48.628;9.002;2023-01-04T12:37:03;96829.69;;;7.79;73.30
75521;BME280;64102;48.628;9.002;2023-01-04T12:50:08;96819.31;;;7.93;73.81
75521;BME280;64102;48.628;9.002;2023-01-04T12:52:51;96812.81;;;8.00;73.40
75521;BME280;64102;48.628;9.002;2023-01-04T12:57:59;96813.94;;;8.09;73.08
75521;BME280;64102;48.628;9.002;2023-01-04T13:06:02;96806.31;;;8.20;73.07
75521;BME280;64102;48.628;9.002;2023-01-04T13:08:28;96798.00;;;8.29;73.03
75521;BME280;64102;48.628;9.002;2023-01-04T13:10:58;96801.19;;;8.33;72.69
75521;BME280;64102;48.628;9.002;2023-01-04T13:16:56;96785.53;;;8.36;72.60
75521;BME280;64102;48.628;9.002;2023-01-04T13:19:28;96781.94;;;8.38;72.18
75521;BME280;64102;48.628;9.002;2023-01-04T13:21:54;96781.59;;;8.43;71.93
75521;BME280;64102;48.628;9.002;2023-01-04T13:24:32;96776.34;;;8.44;72.27
75521;BME280;64102;48.628;9.002;2023-01-04T13:27:07;96774.16;;;8.51;72.39
75521;BME280;64102;48.628;9.002;2023-01-04T13:29:35;96784.44;;;8.51;71.98
75521;BME280;64102;48.628;9.002;2023-01-04T13:32:02;96782.56;;;8.53;72.23
75521;BME280;64102;48.628;9.002;2023-01-04T13:39:42;96788.66;;;8.52;72.55
75521;BME280;64102;48.628;9.002;2023-01-04T13:42:33;96794.97;;;8.48;72.10
75521;BME280;64102;48.628;9.002;2023-01-04T13:47:29;96775.81;;;8.52;71.98
75521;BME280;64102;48.628;9.002;2023-01-04T13:49:58;96775.91;;;8.50;72.73
75521;BME280;64102;48.628;9.002;2023-01-04T13:52:25;96767.69;;;8.45;72.11
75521;BME280;64102;48.628;9.002;2023-01-04T13:54:51;96762.66;;;8.44;72.14
75521;BME280;64102;48.628;9.002;2023-01-04T13:57:17;96757.50;;;8.44;72.57
75521;BME280;64102;48.628;9.002;2023-01-04T13:59:48;96756.38;;;8.48;72.42
75521;BME280;64102;48.628;9.002;2023-01-04T14:02:16;96759.66;;;8.50;71.98
75521;BME280;64102;48.628;9.002;2023-01-04T14:04:42;96751.94;;;8.50;72.47
75521;BME280;64102;48.628;9.002;2023-01-04T14:07:08;96758.13;;;8.47;72.76
75521;BME280;64102;48.628;9.002;2023-01-04T14:09:48;96758.22;;;8.46;72.51
75521;BME280;64102;48.628;9.002;2023-01-04T14:12:19;96764.09;;;8.48;72.37
75521;BME280;64102;48.628;9.002;2023-01-04T14:14:58;96737.97;;;8.41;73.09
75521;BME280;64102;48.628;9.002;2023-01-04T14:22:48;96751.66;;;8.42;73.05
75521;BME280;64102;48.628;9.002;2023-01-04T14:28:35;96743.13;;;8.41;72.89
75521;BME280;64102;48.628;9.002;2023-01-04T14:38:37;96735.63;;;8.38;73.43
75521;BME280;64102;48.628;9.002;2023-01-04T14:44:43;96717.16;;;8.33;73.64
75521;BME280;64102;48.628;9.002;2023-01-04T14:47:08;96711.06;;;8.34;73.22
75521;BME280;64102;48.628;9.002;2023-01-04T14:49:34;96705.31;;;8.31;73.56
75521;BME280;64102;48.628;9.002;2023-01-04T14:52:01;96719.28;;;8.27;74.14
75521;BME280;64102;48.628;9.002;2023-01-04T14:54:29;96707.56;;;8.23;74.28
75521;BME280;64102;48.628;9.002;2023-01-04T14:56:55;96705.13;;;8.21;73.71
75521;BME280;64102;48.628;9.002;2023-01-04T14:59:21;96719.94;;;8.18;74.78
75521;BME280;64102;48.628;9.002;2023-01-04T15:01:49;96715.00;;;8.15;74.98
75521;BME280;64102;48.628;9.002;2023-01-04T15:04:14;96716.44;;;8.19;74.13